sensor_id;sensor_type;location;lat;lon;timestamp;pressure;altitude;pressure_sealevel;temperature;humidity
21449;BME280;10885;52.830;13.788;2024-03-23T05:14:51;100115.25;;;7.01;95.82
21449;BME280;10885;52.830;13.788;2024-03-23T05:19:54;100113.84;;;6.92;95.34
21449;BME280;10885;52.830;13.788;2024-03-23T05:24:55;100109.97;;;6.97;96.01
21449;BME280;10885;52.830;13.788;2024-03-23T05:29:57;100108.31;;;6.98;96.70
21449;BME280;10885;52.830;13.788;2024-03-23T05:34:58;100090.84;;;6.91;95.85
21449;BME280;10885;52.830;13.788;2024-03-23T05:40:00;100094.28;;;6.91;95.87
21449;BME280;10885;52.830;13.788;2024-03-23T05:45:02;100100.34;;;6.93;96.15
21449;BME280;10885;52.830;13.788;2024-03-23T05:50:07;100089.94;;;6.90;95.23
21449;BME280;10885;52.830;13.788;2024-03-23T05:55:08;100086.81;;;6.81;95.83
21449;BME280;10885;52.830;13.788;2024-03-23T06:00:10;100078.84;;;6.76;94.37
21449;BME280;10885;52.830;13.788;2024-03-23T06:05:17;100066.22;;;6.78;94.69
21449;BME280;10885;52.830;13.788;2024-03-23T06:10:19;100070.22;;;6.74;94.67
21449;BME280;10885;52.830;13.788;2024-03-23T06:15:21;100066.47;;;6.81;94.44
21449;BME280;10885;52.830;13.788;2024-03-23T06:20:24;100066.34;;;6.80;93.42
21449;BME280;10885;52.830;13.788;2024-03-23T06:25:26;100059.59;;;6.80;93.78
21449;BME280;10885;52.830;13.788;2024-03-23T06:30:28;100040.81;;;6.78;94.71
21449;BME280;10885;52.830;13.788;2024-03-23T06:35:31;100042.59;;;6.79;94.87
21449;BME280;10885;52.830;13.788;2024-03-23T06:40:36;100036.50;;;6.77;93.17
21449;BME280;10885;52.830;13.788;2024-03-23T06:45:38;100033.41;;;6.81;95.12
21449;BME280;10885;52.830;13.788;2024-03-23T06:50:40;100025.94;;;6.84;95.02
21449;BME280;10885;52.830;13.788;2024-03-23T06:55:41;100022.19;;;6.91;95.68
21449;BME280;10885;52.830;13.788;2024-03-23T07:00:43;100023.66;;;7.01;93.86
21449;BME280;10885;52.830;13.788;2024-03-23T07:05:44;100032.00;;;6.98;93.08
21449;BME280;10885;52.830;13.788;2024-03-23T07:10:47;100021.34;;;7.04;93.31
21449;BME280;10885;52.830;13.788;2024-03-23T07:15:53;100016.09;;;7.14;93.33
21449;BME280;10885;52.830;13.788;2024-03-23T07:20:57;100011.88;;;7.14;93.29
21449;BME280;10885;52.830;13.788;2024-03-23T07:26:03;99999.47;;;7.19;93.03
21449;BME280;10885;52.830;13.788;2024-03-23T07:31:11;100003.38;;;7.27;92.52
21449;BME280;10885;52.830;13.788;2024-03-23T07:36:13;100008.09;;;7.48;91.85
21449;BME280;10885;52.830;13.788;2024-03-23T07:41:16;100005.81;;;7.52;91.57
21449;BME280;10885;52.830;13.788;2024-03-23T07:46:20;99994.97;;;7.55;91.05
21449;BME280;10885;52.830;13.788;2024-03-23T07:51:23;99999.09;;;7.53;91.00
21449;BME280;10885;52.830;13.788;2024-03-23T07:56:24;99993.91;;;7.65;88.24
21449;BME280;10885;52.830;13.788;2024-03-23T08:01:26;99989.97;;;7.70;87.94
21449;BME280;10885;52.830;13.788;2024-03-23T08:06:27;99992.31;;;7.80;87.94
21449;BME280;10885;52.830;13.788;2024-03-23T08:11:30;99975.44;;;7.82;86.59
21449;BME280;10885;52.830;13.788;2024-03-23T08:16:32;99967.13;;;7.85;86.36
21449;BME280;10885;52.830;13.788;2024-03-23T08:21:35;99978.38;;;7.88;86.64
21449;BME280;10885;52.830;13.788;2024-03-23T08:26:37;99968.00;;;7.85;86.51
21449;BME280;10885;52.830;13.788;2024-03-23T08:31:38;99966.06;;;7.81;85.46
21449;BME280;10885;52.830;13.788;2024-03-23T08:36:40;99954.63;;;7.74;86.66
21449;BME280;10885;52.830;13.788;2024-03-23T08:41:42;99961.47;;;7.62;84.67
21449;BME280;10885;52.830;13.788;2024-03-23T08:46:47;99961.88;;;7.42;83.84
21449;BME280;10885;52.830;13.788;2024-03-23T08:51:49;99957.28;;;7.36;83.50
21449;BME280;10885;52.830;13.788;2024-03-23T08:56:50;99954.94;;;7.39;85.07
21449;BME280;10885;52.830;13.788;2024-03-23T09:01:52;99948.28;;;7.41;84.98
21449;BME280;10885;52.830;13.788;2024-03-23T09:06:54;99943.06;;;7.40;85.24
21449;BME280;10885;52.830;13.788;2024-03-23T09:11:56;99936.22;;;7.38;85.67
21449;BME280;10885;52.830;13.788;2024-03-23T09:16:57;99946.97;;;7.34;84.40
21449;BME280;10885;52.830;13.788;2024-03-23T09:21:59;99954.94;;;7.39;84.87
21449;BME280;10885;52.830;13.788;2024-03-23T09:27:00;99951.97;;;7.46;85.03
21449;BME280;10885;52.830;13.788;2024-03-23T09:32:02;99951.00;;;7.44;84.11
21449;BME280;10885;52.830;13.788;2024-03-23T09:37:04;99943.19;;;7.41;84.05
21449;BME280;10885;52.830;13.788;2024-03-23T09:42:06;99946.81;;;7.31;83.25
21449;BME280;10885;52.830;13.788;2024-03-23T09:47:08;99938.38;;;7.19;84.26
21449;BME280;10885;52.830;13.788;2024-03-23T09:52:10;99948.66;;;7.07;84.26
21449;BME280;10885;52.830;13.788;2024-03-23T09:57:11;99946.00;;;7.06;84.97
21449;BME280;10885;52.830;13.788;2024-03-23T10:02:15;99947.34;;;7.01;84.13
21449;BME280;10885;52.830;13.788;2024-03-23T10:07:19;99939.34;;;7.08;82.71
21449;BME280;10885;52.830;13.788;2024-03-23T10:12:22;99942.88;;;7.10;83.00
21449;BME280;10885;52.830;13.788;2024-03-23T10:17:25;99956.94;;;7.05;81.90
21449;BME280;10885;52.830;13.788;2024-03-23T10:22:26;99968.59;;;7.01;81.20
21449;BME280;10885;52.830;13.788;2024-03-23T10:27:28;99963.66;;;6.91;81.79
21449;BME280;10885;52.830;13.788;2024-03-23T10:32:29;99978.19;;;6.80;80.98
21449;BME280;10885;52.830;13.788;2024-03-23T10:37:31;99980.81;;;6.68;81.02
21449;BME280;10885;52.830;13.788;2024-03-23T10:42:34;99982.59;;;6.69;82.55
21449;BME280;10885;52.830;13.788;2024-03-23T10:47:37;99984.28;;;6.57;81.49
21449;BME280;10885;52.830;13.788;2024-03-23T10:52:39;99986.69;;;6.67;83.30
21449;BME280;10885;52.830;13.788;2024-03-23T10:57:48;99982.13;;;6.75;83.19
21449;BME280;10885;52.830;13.788;2024-03-23T11:02:51;99981.28;;;6.63;83.78
21449;BME280;10885;52.830;13.788;2024-03-23T11:07:53;99984.91;;;6.41;85.08
21449;BME280;10885;52.830;13.788;2024-03-23T11:13:21;99976.03;;;6.23;86.67
21449;BME280;10885;52.830;13.788;2024-03-23T11:18:21;99982.59;;;6.07;88.09
21449;BME280;10885;52.830;13.788;2024-03-23T11:23:27;99988.19;;;6.15;87.25
21449;BME280;10885;52.830;13.788;2024-03-23T11:28:30;100009.91;;;6.35;88.25
21449;BME280;10885;52.830;13.788;2024-03-23T11:33:31;100003.09;;;6.59;87.71
21449;BME280;10885;52.830;13.788;2024-03-23T11:38:36;100003.00;;;6.71;86.85
21449;BME280;10885;52.830;13.788;2024-03-23T11:43:38;99998.72;;;6.70;85.77
21449;BME280;10885;52.830;13.788;2024-03-23T11:48:40;99991.56;;;6.64;86.07
21449;BME280;10885;52.830;13.788;2024-03-23T11:53:41;99989.00;;;6.89;86.43
21449;BME280;10885;52.830;13.788;2024-03-23T11:58:43;99995.84;;;7.15;85.44
21449;BME280;10885;52.830;13.788;2024-03-23T12:03:45;99997.59;;;7.30;84.50
21449;BME280;10885;52.830;13.788;2024-03-23T12:08:47;100000.44;;;7.34;84.24
21449;BME280;10885;52.830;13.788;2024-03-23T12:13:49;99998.00;;;7.49;83.58
21449;BME280;10885;52.830;13.788;2024-03-23T12:18:52;99998.50;;;7.57;82.70
21449;BME280;10885;52.830;13.788;2024-03-23T12:23:53;100010.16;;;7.67;81.80
21449;BME280;10885;52.830;13.788;2024-03-23T12:28:55;100011.13;;;7.69;81.59
21449;BME280;10885;52.830;13.788;2024-03-23T12:33:57;100008.28;;;7.77;82.09
21449;BME280;10885;52.830;13.788;2024-03-23T12:38:58;100006.97;;;7.97;82.93
21449;BME280;10885;52.830;13.788;2024-03-23T12:44:00;100009.84;;;7.89;82.56
21449;BME280;10885;52.830;13.788;2024-03-23T12:49:02;100004.75;;;7.75;83.30
21449;BME280;10885;52.830;13.788;2024-03-23T12:54:03;99998.41;;;7.69;84.34
21449;BME280;10885;52.830;13.788;2024-03-23T12:59:05;99982.69;;;7.76;83.33
21449;BME280;10885;52.830;13.788;2024-03-23T13:04:09;99987.13;;;7.79;84.58
21449;BME280;10885;52.830;13.788;2024-03-23T13:09:11;99987.69;;;8.01;83.78
21449;BME280;10885;52.830;13.788;2024-03-23T13:14:12;99988.91;;;8.21;84.09
21449;BME280;10885;52.830;13.788;2024-03-23T13:19:16;99994.56;;;8.59;83.79
21449;BME280;10885;52.830;13.788;2024-03-23T13:24:23;99994.88;;;8.93;81.43
21449;BME280;10885;52.830;13.788;2024-03-23T13:29:25;99982.91;;;9.36;80.75
21449;BME280;10885;52.830;13.788;2024-03-23T13:34:27;99984.59;;;10.13;77.95
21449;BME280;10885;52.830;13.788;2024-03-23T13:39:30;99981.81;;;11.27;75.46
21449;BME280;10885;52.830;13.788;2024-03-23T13:44:32;99995.44;;;11.98;71.74
21449;BME280;10885;52.830;13.788;2024-03-23T13:49:34;100001.88;;;12.64;67.99
21449;BME280;10885;52.830;13.788;2024-03-23T13:54:37;99994.78;;;12.59;67.35
21449;BME280;10885;52.830;13.788;2024-03-23T13:59:39;99981.84;;;13.17;62.39
21449;BME280;10885;52.830;13.788;2024-03-23T14:04:40;99983.13;;;13.06;63.20
21449;BME280;10885;52.830;13.788;2024-03-23T14:09:42;99991.53;;;12.63;60.68
21449;BME280;10885;52.830;13.788;2024-03-23T14:14:43;99994.09;;;12.06;64.55
21449;BME280;10885;52.830;13.788;2024-03-23T14:19:45;99998.16;;;11.29;67.13
21449;BME280;10885;52.830;13.788;2024-03-23T14:24:47;100001.22;;;10.54;69.98
21449;BME280;10885;52.830;13.788;2024-03-23T14:29:48;100026.91;;;10.08;72.65
21449;BME280;10885;52.830;13.788;2024-03-23T14:34:50;100050.66;;;8.87;72.76
21449;BME280;10885;52.830;13.788;2024-03-23T14:39:55;100044.00;;;8.19;77.03
21449;BME280;10885;52.830;13.788;2024-03-23T14:44:57;100029.53;;;7.91;80.21
21449;BME280;10885;52.830;13.788;2024-03-23T14:49:58;100032.66;;;7.74;81.34
21449;BME280;10885;52.830;13.788;2024-03-23T14:55:00;100029.56;;;8.20;82.22
21449;BME280;10885;52.830;13.788;2024-03-23T15:00:02;100041.16;;;8.99;81.46
21449;BME280;10885;52.830;13.788;2024-03-23T15:05:06;100054.03;;;9.30;74.31
21449;BME280;10885;52.830;13.788;2024-03-23T15:10:11;100057.97;;;9.53;74.52
21449;BME280;10885;52.830;13.788;2024-03-23T15:15:13;100065.38;;;9.35;73.00
21449;BME280;10885;52.830;13.788;2024-03-23T15:20:17;100059.03;;;8.99;74.51
21449;BME280;10885;52.830;13.788;2024-03-23T15:25:19;100050.44;;;8.69;76.76
21449;BME280;10885;52.830;13.788;2024-03-23T15:30:21;100037.47;;;8.37;78.36
21449;BME280;10885;52.830;13.788;2024-03-23T15:35:22;100032.94;;;8.75;77.49
21449;BME280;10885;52.830;13.788;2024-03-23T15:40:24;100029.81;;;9.09;76.25
21449;BME280;10885;52.830;13.788;2024-03-23T15:45:26;100010.97;;;9.07;75.16
21449;BME280;10885;52.830;13.788;2024-03-23T15:50:28;100008.34;;;9.20;74.19
21449;BME280;10885;52.830;13.788;2024-03-23T15:55:30;100000.06;;;8.94;74.27
21449;BME280;10885;52.830;13.788;2024-03-23T16:00:31;99991.94;;;8.72;75.77
21449;BME280;10885;52.830;13.788;2024-03-23T16:05:33;99982.97;;;8.79;75.16
21449;BME280;10885;52.830;13.788;2024-03-23T16:10:34;99977.22;;;8.68;75.26
21449;BME280;10885;52.830;13.788;2024-03-23T16:15:36;99973.94;;;8.41;75.71
21449;BME280;10885;52.830;13.788;2024-03-23T16:20:38;99957.09;;;8.29;76.27
21449;BME280;10885;52.830;13.788;2024-03-23T16:25:46;99959.63;;;8.14;76.53
21449;BME280;10885;52.830;13.788;2024-03-23T16:30:58;99945.38;;;8.18;76.77
21449;BME280;10885;52.830;13.788;2024-03-23T16:36:07;99952.69;;;7.99;77.26
21449;BME280;10885;52.830;13.788;2024-03-23T16:41:11;99947.44;;;7.82;77.26
21449;BME280;10885;52.830;13.788;2024-03-23T16:46:17;99946.91;;;8.01;79.92
21449;BME280;10885;52.830;13.788;2024-03-23T16:51:18;99955.84;;;7.94;76.93
21449;BME280;10885;52.830;13.788;2024-03-23T16:56:20;99959.94;;;7.51;78.13
21449;BME280;10885;52.830;13.788;2024-03-23T17:01:22;99954.13;;;7.13;79.19
21449;BME280;10885;52.830;13.788;2024-03-23T17:06:25;99959.25;;;6.88;80.59
21449;BME280;10885;52.830;13.788;2024-03-23T17:11:27;99953.56;;;6.79;81.31
21449;BME280;10885;52.830;13.788;2024-03-23T17:16:29;99955.09;;;6.64;81.82
21449;BME280;10885;52.830;13.788;2024-03-23T17:21:31;99954.50;;;6.43;81.87
21449;BME280;10885;52.830;13.788;2024-03-23T17:26:33;99967.69;;;6.37;83.07
21449;BME280;10885;52.830;13.788;2024-03-23T17:31:35;99971.81;;;6.23;84.20
21449;BME280;10885;52.830;13.788;2024-03-23T17:36:37;99973.91;;;6.04;85.55
21449;BME280;10885;52.830;13.788;2024-03-23T17:41:40;99987.06;;;5.86;85.59
21449;BME280;10885;52.830;13.788;2024-03-23T17:46:41;99985.31;;;5.73;85.72
21449;BME280;10885;52.830;13.788;2024-03-23T17:51:43;99986.09;;;5.72;86.03
21449;BME280;10885;52.830;13.788;2024-03-23T17:56:46;99997.03;;;5.60;87.13
21449;BME280;10885;52.830;13.788;2024-03-23T18:01:47;99992.28;;;5.52;86.92
21449;BME280;10885;52.830;13.788;2024-03-23T18:06:49;100009.06;;;5.50;88.26
21449;BME280;10885;52.830;13.788;2024-03-23T18:11:52;100044.16;;;5.80;86.50
21449;BME280;10885;52.830;13.788;2024-03-23T18:16:54;100073.84;;;5.92;87.88
21449;BME280;10885;52.830;13.788;2024-03-23T18:21:56;100085.31;;;5.99;86.19
21449;BME280;10885;52.830;13.788;2024-03-23T18:26:58;100085.22;;;6.09;86.42
21449;BME280;10885;52.830;13.788;2024-03-23T18:31:59;100088.75;;;6.11;85.10
21449;BME280;10885;52.830;13.788;2024-03-23T18:37:01;100079.66;;;6.15;85.52
21449;BME280;10885;52.830;13.788;2024-03-23T18:42:03;100082.31;;;6.16;85.07
21449;BME280;10885;52.830;13.788;2024-03-23T18:47:07;100078.25;;;6.07;85.62
21449;BME280;10885;52.830;13.788;2024-03-23T18:52:08;100084.75;;;5.91;86.53
21449;BME280;10885;52.830;13.788;2024-03-23T18:57:10;100070.00;;;5.74;87.09
21449;BME280;10885;52.830;13.788;2024-03-23T19:02:12;100072.28;;;5.59;87.23
21449;BME280;10885;52.830;13.788;2024-03-23T19:07:14;100071.84;;;5.53;87.32
21449;BME280;10885;52.830;13.788;2024-03-23T19:12:15;100073.94;;;5.47;88.17
21449;BME280;10885;52.830;13.788;2024-03-23T19:17:17;100074.25;;;5.28;88.44
21449;BME280;10885;52.830;13.788;2024-03-23T19:22:19;100068.34;;;5.05;90.11
21449;BME280;10885;52.830;13.788;2024-03-23T19:27:20;100085.97;;;5.04;89.68
21449;BME280;10885;52.830;13.788;2024-03-23T19:32:24;100079.34;;;4.94;89.44
21449;BME280;10885;52.830;13.788;2024-03-23T19:37:25;100071.31;;;4.77;89.96
21449;BME280;10885;52.830;13.788;2024-03-23T19:42:27;100071.81;;;4.62;90.36
21449;BME280;10885;52.830;13.788;2024-03-23T19:47:30;100076.00;;;4.39;89.85
21449;BME280;10885;52.830;13.788;2024-03-23T19:52:32;100080.88;;;4.26;89.33
21449;BME280;10885;52.830;13.788;2024-03-23T19:57:34;100070.03;;;4.16;91.27
21449;BME280;10885;52.830;13.788;2024-03-23T20:02:36;100063.25;;;4.27;91.29
21449;BME280;10885;52.830;13.788;2024-03-23T20:07:37;100067.06;;;4.32;90.88
21449;BME280;10885;52.830;13.788;2024-03-23T20:12:39;100062.06;;;4.34;90.74
21449;BME280;10885;52.830;13.788;2024-03-23T20:17:40;100066.53;;;4.26;90.44
21449;BME280;10885;52.830;13.788;2024-03-23T20:22:42;100063.66;;;4.22;91.06
21449;BME280;10885;52.830;13.788;2024-03-23T20:27:44;100054.31;;;4.21;89.55
21449;BME280;10885;52.830;13.788;2024-03-23T20:32:48;100065.59;;;4.14;90.77
21449;BME280;10885;52.830;13.788;2024-03-23T20:37:50;100059.81;;;4.05;90.72
21449;BME280;10885;52.830;13.788;2024-03-23T20:42:53;100063.41;;;3.96;91.54
21449;BME280;10885;52.830;13.788;2024-03-23T20:47:55;100062.81;;;3.89;91.71
21449;BME280;10885;52.830;13.788;2024-03-23T20:52:57;100058.25;;;3.85;91.10
21449;BME280;10885;52.830;13.788;2024-03-23T20:58:00;100049.41;;;3.79;90.99
21449;BME280;10885;52.830;13.788;2024-03-23T21:03:02;100055.84;;;3.76;91.13
21449;BME280;10885;52.830;13.788;2024-03-23T21:08:03;100050.88;;;3.88;90.57
21449;BME280;10885;52.830;13.788;2024-03-23T21:13:06;100048.75;;;3.82;89.74
21449;BME280;10885;52.830;13.788;2024-03-23T21:18:07;100053.81;;;3.82;89.60
21449;BME280;10885;52.830;13.788;2024-03-23T21:23:09;100052.94;;;3.82;89.03
21449;BME280;10885;52.830;13.788;2024-03-23T21:28:10;100051.28;;;3.82;89.15
21449;BME280;10885;52.830;13.788;2024-03-23T21:33:12;100050.41;;;3.82;88.48
21449;BME280;10885;52.830;13.788;2024-03-23T21:38:14;100046.25;;;3.72;88.51
21449;BME280;10885;52.830;13.788;2024-03-23T21:43:15;100048.81;;;3.62;89.42
21449;BME280;10885;52.830;13.788;2024-03-23T21:48:17;100047.19;;;3.52;89.00
21449;BME280;10885;52.830;13.788;2024-03-23T21:53:19;100041.66;;;3.46;89.25
21449;BME280;10885;52.830;13.788;2024-03-23T21:58:25;100049.75;;;3.42;89.25
21449;BME280;10885;52.830;13.788;2024-03-23T22:03:26;100039.88;;;3.34;90.03
21449;BME280;10885;52.830;13.788;2024-03-23T22:08:28;100042.53;;;3.36;90.49
21449;BME280;10885;52.830;13.788;2024-03-23T22:13:30;100036.97;;;3.40;89.91
21449;BME280;10885;52.830;13.788;2024-03-23T22:18:32;100024.19;;;3.49;89.89
21449;BME280;10885;52.830;13.788;2024-03-23T22:23:33;100024.06;;;3.47;89.84
21449;BME280;10885;52.830;13.788;2024-03-23T22:28:35;100021.16;;;3.53;89.77
